Terminal Aerodrome Forecast
Issued by NWS Green Bay, WI

Home | Current Version | Previous Version | Text Only | Print | Product List | Glossary Off
Versions: 1 2 3 4 5 6 7 8 9 10 11 12 13 14 15 16 17 18 19 20 21 22 23 24 25 26 27 28 29 30 31 32

000
FTUS43 KGRB 301700
TAFGRB
TAF
KGRB 301721Z 3018/3118 27006KT P6SM SCT080 BKN110
     FM310000 21004KT P6SM SCT060 OVC100
     FM310800 22005KT P6SM SCT025 OVC060
      TEMPO 3109/3113 -SN BKN025
     FM311300 25005KT P6SM BKN035 OVC080
     FM311600 33007KT P6SM BKN035 OVC080=

USA.gov is the U.S. government's official web portal to all federal, state and local government web resources and services.